This is the latest recevied weather packets stored in our database for station/object SV6LWW-11. If no packets are shown the sender has not sent any weather packets the latest 10 day(s).
| Time | Temp. | Humidity | Pressure | Rain* | Wind** | Luminosity | Snow |
|---|---|---|---|---|---|---|---|
| 1777404548 | 25° C | 48% | 1024.9 hPa | - | - | - | - |
| 1777403648 | 25° C | 49% | 1025 hPa | - | - | - | - |
| 1777402747 | 24.44° C | 49% | 1025 hPa | - | - | - | - |
| 1777401847 | 24.44° C | 50% | 1024.9 hPa | - | - | - | - |
| 1777400947 | 24.44° C | 47% | 1024.7 hPa | - | - | - | - |
| 1777400047 | 23.89° C | 46% | 1024.6 hPa | - | - | - | - |
| 1777399147 | 23.33° C | 47% | 1024.4 hPa | - | - | - | - |
| 1777398247 | 22.22° C | 49% | 1024.3 hPa | - | - | - | - |
| 1777397347 | 20.56° C | 52% | 1024.1 hPa | - | - | - | - |
| 1777396447 | 20.56° C | 52% | 1024.1 hPa | - | - | - | - |
| 1777395546 | 20.56° C | 52% | 1024 hPa | - | - | - | - |
| 1777394646 | 20.56° C | 51% | 1023.8 hPa | - | - | - | - |
| 1777393745 | 20.56° C | 51% | 1023.6 hPa | - | - | - | - |
| 1777392849 | 20.56° C | 50% | 1023.5 hPa | - | - | - | - |
| 1777391949 | 20.56° C | 50% | 1023.6 hPa | - | - | - | - |
| 1777391049 | 20.56° C | 49% | 1023.5 hPa | - | - | - | - |
| 1777390149 | 20.56° C | 49% | 1023.4 hPa | - | - | - | - |
| 1777389249 | 20.56° C | 49% | 1023.3 hPa | - | - | - | - |
| 1777388349 | 20.56° C | 50% | 1023.2 hPa | - | - | - | - |
| 1777387449 | 20.56° C | 51% | 1023 hPa | - | - | - | - |
| 1777386549 | 20.56° C | 50% | 1023.1 hPa | - | - | - | - |
| 1777385648 | 20.56° C | 51% | 1023 hPa | - | - | - | - |
| 1777384748 | 20.56° C | 51% | 1023.1 hPa | - | - | - | - |
| 1777383848 | 20.56° C | 51% | 1023.2 hPa | - | - | - | - |
| 1777382948 | 20.56° C | 52% | 1023.2 hPa | - | - | - | - |
* Rain since midnight (hover to see other rain measurements)
** Current wind speed in m/s (hover to see current wind gust speed)